createdAt,value
2022-08-24T00:00:22.466Z,25.20
2022-08-24T00:02:25.910Z,18.40
2022-08-24T00:04:28.693Z,13.40
2022-08-24T00:06:34.577Z,7.97
2022-08-24T00:08:38.612Z,5.85
2022-08-24T00:10:41.343Z,5.75
2022-08-24T00:12:43.943Z,4.90
2022-08-24T00:14:46.592Z,4.97
2022-08-24T00:16:49.170Z,4.47
2022-08-24T00:18:51.843Z,5.95
2022-08-24T00:20:54.427Z,5.40
2022-08-24T00:22:57.144Z,17.50
2022-08-24T00:24:59.908Z,26.40
2022-08-24T00:27:02.678Z,35.80
2022-08-24T00:29:07.569Z,29.15
2022-08-24T00:31:13.223Z,29.65
2022-08-24T00:33:15.826Z,33.92
2022-08-24T00:35:19.961Z,28.67
2022-08-24T00:37:22.352Z,27.17
2022-08-24T00:39:24.742Z,15.68
2022-08-24T00:41:29.142Z,4.03
2022-08-24T00:43:33.302Z,3.35
2022-08-24T00:45:43.725Z,4.80
2022-08-24T00:47:54.420Z,8.30
2022-08-24T00:49:59.715Z,15.77
2022-08-24T00:52:21.451Z,13.95
2022-08-24T00:54:29.409Z,12.68
2022-08-24T00:56:40.389Z,14.77
2022-08-24T00:58:56.059Z,8.38
2022-08-24T01:01:08.820Z,8.35
2022-08-24T01:03:11.926Z,3.03
2022-08-24T01:05:18.270Z,2.90
2022-08-24T01:07:23.396Z,4.43
2022-08-24T01:09:28.745Z,4.25
2022-08-24T01:11:33.752Z,5.70
2022-08-24T01:13:37.490Z,6.55
2022-08-24T01:15:45.805Z,10.98
2022-08-24T01:18:07.406Z,11.05
2022-08-24T01:20:10.931Z,8.23
2022-08-24T01:22:51.187Z,7.47
2022-08-24T01:24:53.671Z,11.35
2022-08-24T01:26:57.893Z,14.27
2022-08-24T01:29:13.816Z,14.50
2022-08-24T01:31:19.241Z,13.15
2022-08-24T01:33:30.243Z,12.13
2022-08-24T01:35:33.414Z,17.85
2022-08-24T01:37:37.696Z,17.00
2022-08-24T01:39:48.553Z,25.17
2022-08-24T01:41:51.937Z,17.05
2022-08-24T01:43:54.288Z,14.27
2022-08-24T01:45:57.014Z,12.70
2022-08-24T01:47:59.972Z,14.10
2022-08-24T01:50:03.086Z,11.05
2022-08-24T01:52:07.643Z,8.73
2022-08-24T01:54:11.186Z,9.10
2022-08-24T01:56:13.399Z,5.63
2022-08-24T01:58:16.066Z,10.38
2022-08-24T02:00:18.621Z,8.93
2022-08-24T02:02:27.900Z,4.95
2022-08-24T02:04:30.034Z,8.35
2022-08-24T02:06:33.189Z,5.47
2022-08-24T02:08:36.215Z,6.22
2022-08-24T02:10:38.416Z,4.25
2022-08-24T02:12:42.742Z,8.75
2022-08-24T02:14:44.738Z,5.18
2022-08-24T02:16:48.066Z,4.93
2022-08-24T02:18:58.829Z,4.75
2022-08-24T02:21:03.850Z,7.38
2022-08-24T02:23:07.122Z,7.70
2022-08-24T02:25:09.486Z,6.05
2022-08-24T02:27:17.719Z,6.18
2022-08-24T02:29:21.950Z,5.38
2022-08-24T02:31:28.063Z,5.30
2022-08-24T02:33:30.867Z,8.48
2022-08-24T02:35:33.447Z,4.82
2022-08-24T02:37:41.125Z,4.70
2022-08-24T02:39:48.464Z,4.50
2022-08-24T02:41:53.356Z,4.18
2022-08-24T02:43:56.362Z,5.68
2022-08-24T02:45:59.340Z,3.00
2022-08-24T02:48:02.020Z,4.07
2022-08-24T02:50:07.091Z,4.97
2022-08-24T02:52:09.353Z,3.55
2022-08-24T02:54:18.510Z,5.15
2022-08-24T02:56:23.015Z,3.40
2022-08-24T02:58:26.015Z,4.35
2022-08-24T03:00:28.562Z,5.90
2022-08-24T03:02:32.185Z,2.83
2022-08-24T03:04:35.059Z,5.82
2022-08-24T03:06:39.561Z,5.20
2022-08-24T03:08:41.936Z,6.05
2022-08-24T03:10:50.083Z,9.43
2022-08-24T03:12:53.973Z,9.85
2022-08-24T03:15:02.516Z,9.40
2022-08-24T03:17:05.492Z,9.00
2022-08-24T03:19:08.008Z,14.25
2022-08-24T03:21:14.880Z,13.70
2022-08-24T03:23:19.165Z,11.32
2022-08-24T03:25:24.832Z,9.82
2022-08-24T03:27:27.099Z,10.93
2022-08-24T03:29:33.606Z,12.27
2022-08-24T03:31:36.328Z,16.10
2022-08-24T03:33:38.832Z,9.75
2022-08-24T03:35:40.972Z,12.75
2022-08-24T03:37:43.928Z,10.30
2022-08-24T03:39:47.981Z,8.43
2022-08-24T03:41:50.262Z,11.60
2022-08-24T03:43:52.351Z,9.55
2022-08-24T03:45:56.682Z,9.13
2022-08-24T03:47:59.582Z,6.60
2022-08-24T03:50:02.447Z,9.77
2022-08-24T03:52:07.392Z,6.82
2022-08-24T03:54:11.099Z,4.70
2022-08-24T03:56:13.235Z,4.82
2022-08-24T03:58:15.428Z,6.72
2022-08-24T04:00:18.299Z,7.20
2022-08-24T04:02:32.933Z,6.38
2022-08-24T04:04:36.449Z,5.20
2022-08-24T04:06:39.112Z,4.97
2022-08-24T04:08:41.878Z,5.80
2022-08-24T04:10:45.292Z,5.22
2022-08-24T04:12:47.285Z,10.35
2022-08-24T04:14:53.080Z,11.65
2022-08-24T04:16:57.430Z,6.57
2022-08-24T04:19:06.389Z,9.07
2022-08-24T04:21:18.424Z,9.55
2022-08-24T04:23:23.861Z,9.02
2022-08-24T04:25:47.167Z,5.93
2022-08-24T04:27:49.811Z,9.70
2022-08-24T04:29:52.236Z,9.57
2022-08-24T04:31:54.891Z,10.27
2022-08-24T04:33:58.745Z,5.55
2022-08-24T04:36:02.828Z,7.70
2022-08-24T04:38:09.390Z,11.65
2022-08-24T04:40:12.850Z,7.78
2022-08-24T04:42:21.365Z,3.58
2022-08-24T04:44:25.546Z,7.45
2022-08-24T04:46:28.872Z,6.95
2022-08-24T04:48:31.646Z,6.20
2022-08-24T04:50:36.202Z,5.57
2022-08-24T04:52:38.711Z,4.30
2022-08-24T04:54:40.832Z,5.53
2022-08-24T04:56:54.008Z,4.60
2022-08-24T04:58:56.668Z,5.30
2022-08-24T05:00:59.189Z,4.63
2022-08-24T05:03:03.948Z,4.30
2022-08-24T05:05:09.321Z,6.13
2022-08-24T05:07:14.069Z,5.03
2022-08-24T05:09:18.939Z,7.38
2022-08-24T05:11:22.954Z,2.35
2022-08-24T05:13:25.671Z,4.50
2022-08-24T05:15:27.943Z,4.07
2022-08-24T05:17:30.775Z,5.25
2022-08-24T05:19:32.855Z,9.55
2022-08-24T05:21:40.067Z,6.43
2022-08-24T05:23:43.363Z,5.00
2022-08-24T05:25:46.548Z,4.22
2022-08-24T05:27:49.137Z,5.70
2022-08-24T05:29:54.336Z,6.15
2022-08-24T05:31:57.536Z,10.63
2022-08-24T05:34:01.820Z,3.92
2022-08-24T05:36:04.977Z,9.52
2022-08-24T05:38:07.365Z,4.63
2022-08-24T05:40:15.642Z,6.78
2022-08-24T05:42:21.334Z,7.47
2022-08-24T05:44:27.913Z,6.28
2022-08-24T05:46:33.980Z,6.25
2022-08-24T05:48:37.506Z,7.80
2022-08-24T05:50:42.739Z,7.50
2022-08-24T05:52:44.805Z,4.43
2022-08-24T05:54:53.077Z,6.85
2022-08-24T05:56:57.776Z,5.20
2022-08-24T05:59:02.692Z,5.40
2022-08-24T06:01:13.695Z,4.68
2022-08-24T06:03:16.526Z,4.80
2022-08-24T06:05:24.593Z,3.17
2022-08-24T06:07:29.845Z,5.57
2022-08-24T06:09:32.928Z,2.72
2022-08-24T06:11:38.717Z,7.72
2022-08-24T06:13:41.999Z,5.60
2022-08-24T06:15:59.672Z,10.18
2022-08-24T06:18:08.475Z,9.68
2022-08-24T06:20:10.975Z,10.50
2022-08-24T06:22:13.236Z,9.77
2022-08-24T06:24:16.662Z,8.60
2022-08-24T06:26:40.640Z,5.53
2022-08-24T06:28:44.413Z,5.72
2022-08-24T06:30:46.872Z,2.88
2022-08-24T06:32:54.437Z,3.80
2022-08-24T06:35:20.039Z,3.25
2022-08-24T06:37:26.635Z,3.35
2022-08-24T06:39:31.619Z,3.53
2022-08-24T06:41:36.464Z,2.78
2022-08-24T06:43:46.809Z,4.97
2022-08-24T06:45:50.623Z,3.17
2022-08-24T06:47:56.189Z,2.47
2022-08-24T06:50:02.171Z,3.53
2022-08-24T06:52:05.647Z,1.70
2022-08-24T06:54:07.808Z,3.95
2022-08-24T06:56:11.044Z,4.20
2022-08-24T06:58:13.485Z,2.10
2022-08-24T07:00:17.656Z,3.60
2022-08-24T07:02:20.932Z,3.88
2022-08-24T07:04:28.088Z,2.60
2022-08-24T07:06:53.769Z,2.17
2022-08-24T07:08:58.452Z,2.78
2022-08-24T07:11:04.409Z,2.85
2022-08-24T07:13:07.130Z,3.28
2022-08-24T07:15:16.148Z,2.97
2022-08-24T07:17:24.429Z,5.22
2022-08-24T07:19:26.780Z,3.42
2022-08-24T07:21:29.586Z,1.52
2022-08-24T07:23:41.202Z,2.40
2022-08-24T07:25:49.652Z,4.95
2022-08-24T07:27:53.508Z,3.75
2022-08-24T07:30:16.186Z,3.38
2022-08-24T07:32:18.928Z,5.28
2022-08-24T07:34:23.636Z,3.92
2022-08-24T07:36:26.197Z,2.55
2022-08-24T07:38:31.934Z,2.78
2022-08-24T07:40:55.785Z,3.45
2022-08-24T07:42:59.189Z,3.13
2022-08-24T07:45:01.430Z,2.28
2022-08-24T07:47:27.181Z,4.43
2022-08-24T07:49:36.450Z,2.65
2022-08-24T07:51:44.792Z,3.30
2022-08-24T07:53:53.666Z,1.55
2022-08-24T07:56:01.649Z,1.70
2022-08-24T07:58:05.846Z,3.78
2022-08-24T08:00:14.396Z,12.18
2022-08-24T08:02:23.775Z,8.38
2022-08-24T08:04:29.788Z,4.07
2022-08-24T08:06:35.490Z,3.13
2022-08-24T08:08:40.838Z,2.00
2022-08-24T08:10:43.149Z,3.95
2022-08-24T08:12:46.038Z,1.83
2022-08-24T08:14:49.129Z,2.08
2022-08-24T08:16:51.997Z,2.78
2022-08-24T08:19:09.331Z,4.07
2022-08-24T08:21:33.089Z,2.08
2022-08-24T08:23:56.299Z,4.38
2022-08-24T08:26:08.732Z,2.92
2022-08-24T08:28:37.827Z,4.20
2022-08-24T08:30:42.323Z,1.95
2022-08-24T08:32:45.019Z,1.92
2022-08-24T08:34:50.905Z,3.80
2022-08-24T08:36:53.544Z,2.50
2022-08-24T08:38:56.217Z,3.28
2022-08-24T08:41:24.483Z,2.13
2022-08-24T08:43:52.893Z,2.15
2022-08-24T08:46:14.544Z,2.88
2022-08-24T08:48:50.299Z,2.28
2022-08-24T08:51:03.075Z,1.65
2022-08-24T08:53:14.079Z,2.28
2022-08-24T08:55:37.659Z,3.83
2022-08-24T08:58:00.368Z,1.60
2022-08-24T09:00:20.114Z,1.95
2022-08-24T09:02:55.742Z,2.75
2022-08-24T09:05:35.482Z,2.72
2022-08-24T09:07:55.593Z,3.35
2022-08-24T09:10:10.417Z,4.32
2022-08-24T09:12:17.216Z,2.03
2022-08-24T09:14:39.091Z,2.60
2022-08-24T09:16:51.310Z,2.05
2022-08-24T09:18:53.652Z,2.17
2022-08-24T09:21:01.272Z,3.60
2022-08-24T09:23:45.135Z,3.40
2022-08-24T09:26:06.760Z,2.15
2022-08-24T09:28:28.481Z,2.08
2022-08-24T09:31:04.071Z,4.30
2022-08-24T09:33:22.449Z,8.18
2022-08-24T09:35:45.008Z,6.00
2022-08-24T09:38:18.184Z,3.05
2022-08-24T09:40:29.488Z,3.40
2022-08-24T09:43:13.436Z,2.45
2022-08-24T09:45:46.147Z,3.47
2022-08-24T09:47:51.527Z,2.28
2022-08-24T09:50:43.460Z,1.92
2022-08-24T09:52:57.686Z,3.08
2022-08-24T09:55:21.692Z,2.63
2022-08-24T09:57:30.680Z,4.53
2022-08-24T10:00:10.478Z,4.72
2022-08-24T10:02:30.599Z,3.45
2022-08-24T10:04:48.721Z,2.83
2022-08-24T10:07:26.171Z,6.75
2022-08-24T10:09:50.555Z,3.53
2022-08-24T10:12:09.228Z,5.50
2022-08-24T10:14:20.085Z,2.40
2022-08-24T10:16:47.073Z,3.08
2022-08-24T10:19:12.800Z,5.43
2022-08-24T10:21:48.523Z,2.33
2022-08-24T10:24:07.385Z,4.75
2022-08-24T10:26:36.957Z,3.35
2022-08-24T10:28:54.821Z,6.30
2022-08-24T10:31:12.632Z,2.83
2022-08-24T10:33:23.750Z,3.80
2022-08-24T10:35:35.484Z,2.75
2022-08-24T10:38:16.055Z,3.97
2022-08-24T10:40:25.515Z,2.25
2022-08-24T10:42:57.944Z,6.30
2022-08-24T10:45:38.919Z,2.15
2022-08-24T10:47:57.484Z,2.33
2022-08-24T10:50:15.142Z,3.67
2022-08-24T10:52:36.704Z,5.63
2022-08-24T10:54:42.931Z,2.05
2022-08-24T10:57:04.085Z,3.95
2022-08-24T10:59:16.983Z,2.60
2022-08-24T11:01:27.399Z,2.90
2022-08-24T11:03:30.170Z,2.42
2022-08-24T11:05:41.513Z,4.43
2022-08-24T11:08:08.167Z,3.33
2022-08-24T11:10:10.730Z,3.22
2022-08-24T11:12:34.605Z,3.90
2022-08-24T11:14:42.028Z,3.10
2022-08-24T11:16:47.115Z,4.25
2022-08-24T11:18:53.407Z,3.53
2022-08-24T11:20:56.014Z,3.60
2022-08-24T11:23:07.066Z,3.75
2022-08-24T11:25:28.230Z,3.40
2022-08-24T11:27:39.866Z,4.85
2022-08-24T11:29:53.636Z,2.40
2022-08-24T11:31:56.938Z,5.10
2022-08-24T11:34:09.215Z,2.45
2022-08-24T11:36:23.538Z,3.25
2022-08-24T11:38:34.579Z,2.47
2022-08-24T11:40:41.063Z,2.22
2022-08-24T11:43:11.178Z,2.47
2022-08-24T11:45:35.266Z,5.10
2022-08-24T11:48:05.335Z,4.38
2022-08-24T11:50:30.139Z,3.72
2022-08-24T11:52:35.298Z,3.08
2022-08-24T11:54:52.758Z,4.20
2022-08-24T11:57:03.730Z,4.07
2022-08-24T11:59:22.586Z,2.72
2022-08-24T12:01:45.859Z,2.58
2022-08-24T12:04:08.120Z,4.90
2022-08-24T12:06:16.352Z,2.28
2022-08-24T12:08:45.642Z,4.00
2022-08-24T12:11:12.588Z,3.42
2022-08-24T12:13:47.249Z,3.72
2022-08-24T12:15:59.406Z,3.63
2022-08-24T12:18:18.953Z,3.40
2022-08-24T12:20:25.614Z,2.38
2022-08-24T12:22:29.260Z,3.97
2022-08-24T12:24:46.272Z,3.00
2022-08-24T12:26:52.328Z,2.88
2022-08-24T12:29:01.720Z,2.13
2022-08-24T12:31:12.531Z,3.78
2022-08-24T12:33:20.409Z,2.10
2022-08-24T12:35:32.681Z,3.78
2022-08-24T12:37:49.426Z,2.35
2022-08-24T12:40:00.196Z,3.92
2022-08-24T12:42:20.107Z,2.33
2022-08-24T12:44:29.317Z,5.97
2022-08-24T12:46:34.335Z,2.03
2022-08-24T12:49:24.151Z,2.10
2022-08-24T12:52:00.677Z,2.17
2022-08-24T12:54:35.279Z,2.30
2022-08-24T12:56:43.665Z,4.38
2022-08-24T12:59:03.433Z,3.08
2022-08-24T13:01:08.008Z,2.20
2022-08-24T13:03:33.758Z,3.97
2022-08-24T13:05:58.929Z,2.47
2022-08-24T13:08:13.430Z,2.50
2022-08-24T13:10:27.278Z,1.77
2022-08-24T13:12:38.276Z,3.42
2022-08-24T13:14:49.828Z,2.50
2022-08-24T13:16:56.541Z,3.53
2022-08-24T13:19:31.363Z,3.33
2022-08-24T13:21:44.544Z,4.18
2022-08-24T13:23:47.074Z,3.13
2022-08-24T13:25:52.358Z,3.65
2022-08-24T13:28:09.354Z,4.03
2022-08-24T13:30:29.628Z,3.47
2022-08-24T13:32:38.666Z,4.95
2022-08-24T13:34:47.460Z,4.55
2022-08-24T13:37:11.038Z,2.00
2022-08-24T13:39:44.096Z,2.25
2022-08-24T13:42:07.414Z,2.90
2022-08-24T13:44:43.929Z,1.92
2022-08-24T13:46:55.372Z,1.98
2022-08-24T13:49:12.962Z,3.38
2022-08-24T13:51:28.829Z,4.50
2022-08-24T13:53:46.972Z,5.28
2022-08-24T13:55:55.726Z,2.67
2022-08-24T13:58:13.377Z,2.10
2022-08-24T14:00:15.254Z,4.28
2022-08-24T14:02:17.141Z,4.63
2022-08-24T14:04:24.553Z,3.90
2022-08-24T14:06:35.981Z,2.58
2022-08-24T14:08:53.463Z,2.78
2022-08-24T14:11:21.077Z,5.07
2022-08-24T14:13:47.949Z,2.00
2022-08-24T14:16:37.318Z,3.38
2022-08-24T14:18:59.166Z,4.47
2022-08-24T14:21:00.948Z,3.83
2022-08-24T14:23:17.712Z,2.75
2022-08-24T14:25:21.514Z,3.38
2022-08-24T14:27:43.790Z,4.22
2022-08-24T14:29:46.693Z,4.75
2022-08-24T14:31:57.475Z,3.92
2022-08-24T14:34:06.561Z,3.72
2022-08-24T14:36:21.002Z,6.35
2022-08-24T14:38:44.891Z,3.85
2022-08-24T14:41:07.981Z,4.50
2022-08-24T14:43:31.356Z,9.55
2022-08-24T14:45:47.187Z,3.03
2022-08-24T14:48:20.534Z,3.40
2022-08-24T14:50:38.755Z,3.88
2022-08-24T14:52:46.260Z,4.50
2022-08-24T14:55:03.699Z,4.85
2022-08-24T14:57:36.119Z,2.65
2022-08-24T14:59:45.562Z,2.95
2022-08-24T15:01:53.611Z,3.50
2022-08-24T15:04:16.670Z,5.25
2022-08-24T15:06:47.846Z,3.25
2022-08-24T15:08:50.091Z,3.63
2022-08-24T15:11:29.609Z,3.97
2022-08-24T15:13:52.974Z,3.05
2022-08-24T15:16:01.778Z,3.63
2022-08-24T15:18:09.674Z,5.22
2022-08-24T15:20:26.768Z,2.47
2022-08-24T15:23:04.140Z,2.90
2022-08-24T15:25:47.400Z,2.88
2022-08-24T15:27:55.282Z,3.45
2022-08-24T15:30:00.607Z,5.18
2022-08-24T15:32:11.386Z,3.72
2022-08-24T15:34:14.106Z,2.10
2022-08-24T15:36:17.699Z,2.92
2022-08-24T15:38:22.093Z,4.20
2022-08-24T15:40:31.555Z,2.67
2022-08-24T15:42:36.187Z,2.60
2022-08-24T15:44:40.832Z,3.00
2022-08-24T15:46:49.334Z,4.00
2022-08-24T15:49:01.370Z,2.95
2022-08-24T15:51:04.167Z,4.18
2022-08-24T15:53:25.709Z,5.13
2022-08-24T15:55:47.960Z,4.35
2022-08-24T15:57:52.500Z,3.85
2022-08-24T16:00:05.167Z,8.13
2022-08-24T16:02:29.171Z,7.18
2022-08-24T16:04:49.776Z,7.00
2022-08-24T16:06:51.584Z,6.18
2022-08-24T16:08:59.503Z,5.10
2022-08-24T16:11:27.687Z,6.28
2022-08-24T16:13:32.230Z,3.40
2022-08-24T16:15:34.870Z,4.03
2022-08-24T16:17:42.164Z,4.60
2022-08-24T16:19:50.886Z,5.47
2022-08-24T16:21:53.757Z,4.72
2022-08-24T16:24:10.140Z,4.28
2022-08-24T16:26:21.118Z,5.75
2022-08-24T16:28:22.963Z,3.63
2022-08-24T16:30:47.762Z,3.33
2022-08-24T16:32:57.804Z,4.32
2022-08-24T16:35:08.703Z,2.35
2022-08-24T16:37:10.764Z,3.40
2022-08-24T16:39:13.418Z,4.18
2022-08-24T16:41:18.688Z,5.30
2022-08-24T16:43:20.543Z,5.45
2022-08-24T16:45:23.260Z,4.82
2022-08-24T16:47:26.820Z,5.68
2022-08-24T16:49:28.630Z,4.68
2022-08-24T16:51:30.474Z,4.70
2022-08-24T16:53:32.421Z,4.82
2022-08-24T16:55:34.733Z,3.63
2022-08-24T16:57:37.687Z,5.18
2022-08-24T16:59:41.711Z,4.95
2022-08-24T17:01:43.654Z,3.55
2022-08-24T17:03:45.652Z,4.25
2022-08-24T17:05:47.538Z,4.57
2022-08-24T17:07:51.018Z,3.55
2022-08-24T17:09:54.817Z,3.85
2022-08-24T17:12:07.163Z,3.42
2022-08-24T17:14:09.583Z,3.95
2022-08-24T17:16:12.657Z,2.80
2022-08-24T17:18:15.316Z,4.97
2022-08-24T17:20:17.189Z,3.05
2022-08-24T17:22:19.768Z,4.55
2022-08-24T17:24:23.047Z,4.10
2022-08-24T17:26:26.931Z,2.88
2022-08-24T17:28:29.333Z,4.25
2022-08-24T17:30:32.183Z,3.80
2022-08-24T17:32:34.334Z,5.55
2022-08-24T17:34:36.401Z,4.50
2022-08-24T17:36:39.130Z,4.30
2022-08-24T17:38:46.246Z,6.47
2022-08-24T17:40:49.507Z,4.30
2022-08-24T17:42:51.977Z,3.88
2022-08-24T17:44:55.096Z,5.00
2022-08-24T17:47:00.680Z,3.63
2022-08-24T17:49:02.659Z,5.40
2022-08-24T17:51:04.961Z,3.35
2022-08-24T17:53:06.985Z,3.10
2022-08-24T17:55:11.962Z,3.75
2022-08-24T17:57:15.068Z,5.18
2022-08-24T17:59:25.428Z,3.65
2022-08-24T18:01:27.749Z,4.65
2022-08-24T18:03:29.606Z,8.10
2022-08-24T18:05:35.983Z,10.35
2022-08-24T18:07:52.539Z,7.05
2022-08-24T18:10:00.419Z,9.52
2022-08-24T18:12:03.047Z,7.85
2022-08-24T18:14:05.382Z,7.30
2022-08-24T18:16:13.682Z,8.23
2022-08-24T18:18:15.964Z,7.63
2022-08-24T18:20:25.112Z,8.50
2022-08-24T18:22:26.927Z,8.52
2022-08-24T18:24:32.645Z,7.38
2022-08-24T18:26:35.121Z,9.18
2022-08-24T18:28:37.323Z,4.70
2022-08-24T18:30:41.366Z,6.18
2022-08-24T18:32:43.191Z,9.57
2022-08-24T18:34:45.476Z,6.90
2022-08-24T18:36:47.809Z,6.25
2022-08-24T18:38:49.647Z,6.07
2022-08-24T18:40:52.761Z,6.22
2022-08-24T18:42:57.533Z,5.13
2022-08-24T18:45:02.878Z,4.95
2022-08-24T18:47:05.102Z,8.10
2022-08-24T18:49:07.323Z,5.68
2022-08-24T18:51:10.437Z,4.80
2022-08-24T18:53:13.435Z,6.63
2022-08-24T18:55:16.878Z,5.60
2022-08-24T18:57:18.934Z,6.10
2022-08-24T18:59:21.466Z,6.95
2022-08-24T19:01:24.173Z,7.85
2022-08-24T19:03:27.271Z,7.85
2022-08-24T19:05:29.069Z,6.78
2022-08-24T19:07:33.775Z,5.38
2022-08-24T19:09:36.138Z,5.90
2022-08-24T19:11:38.408Z,8.85
2022-08-24T19:13:40.380Z,9.27
2022-08-24T19:15:43.248Z,4.72
2022-08-24T19:17:45.582Z,4.57
2022-08-24T19:19:47.417Z,7.68
2022-08-24T19:21:49.663Z,5.70
2022-08-24T19:23:52.129Z,5.70
2022-08-24T19:25:54.709Z,4.28
2022-08-24T19:27:56.716Z,6.63
2022-08-24T19:29:58.647Z,5.55
2022-08-24T19:32:00.703Z,5.28
2022-08-24T19:34:03.522Z,3.60
2022-08-24T19:36:07.412Z,4.15
2022-08-24T19:38:09.364Z,5.72
2022-08-24T19:40:12.042Z,6.40
2022-08-24T19:42:15.536Z,8.10
2022-08-24T19:44:38.736Z,5.22
2022-08-24T19:46:40.762Z,5.80
2022-08-24T19:48:42.588Z,4.05
2022-08-24T19:50:44.539Z,4.35
2022-08-24T19:52:46.585Z,8.85
2022-08-24T19:54:48.707Z,5.20
2022-08-24T19:56:54.353Z,6.30
2022-08-24T19:59:02.258Z,8.27
2022-08-24T20:01:10.731Z,7.45
2022-08-24T20:03:13.312Z,8.52
2022-08-24T20:05:17.948Z,7.65
2022-08-24T20:07:19.855Z,8.07
2022-08-24T20:09:23.563Z,7.90
2022-08-24T20:11:25.963Z,7.00
2022-08-24T20:13:27.964Z,6.75
2022-08-24T20:15:29.890Z,4.78
2022-08-24T20:17:32.113Z,5.15
2022-08-24T20:19:38.177Z,5.03
2022-08-24T20:21:40.640Z,9.10
2022-08-24T20:23:43.694Z,8.20
2022-08-24T20:25:46.288Z,7.22
2022-08-24T20:27:55.024Z,10.68
2022-08-24T20:30:09.815Z,6.63
2022-08-24T20:32:11.879Z,7.25
2022-08-24T20:34:15.280Z,7.10
2022-08-24T20:36:27.769Z,8.95
2022-08-24T20:38:31.917Z,6.10
2022-08-24T20:40:36.257Z,5.55
2022-08-24T20:42:38.669Z,7.00
2022-08-24T20:44:40.827Z,7.30
2022-08-24T20:46:46.566Z,5.13
2022-08-24T20:48:55.440Z,7.57
2022-08-24T20:50:59.247Z,5.05
2022-08-24T20:53:01.356Z,4.38
2022-08-24T20:55:05.154Z,4.57
2022-08-24T20:57:09.402Z,4.93
2022-08-24T20:59:13.372Z,5.25
2022-08-24T21:01:15.681Z,8.82
2022-08-24T21:03:19.354Z,4.60
2022-08-24T21:05:22.533Z,6.72
2022-08-24T21:07:24.711Z,4.80
2022-08-24T21:09:27.513Z,6.30
2022-08-24T21:11:29.694Z,6.40
2022-08-24T21:13:40.595Z,5.68
2022-08-24T21:15:42.931Z,7.50
2022-08-24T21:17:45.574Z,6.18
2022-08-24T21:19:47.888Z,4.45
2022-08-24T21:21:50.071Z,5.97
2022-08-24T21:23:52.163Z,6.13
2022-08-24T21:25:54.527Z,3.50
2022-08-24T21:28:02.165Z,5.80
2022-08-24T21:30:08.879Z,5.13
2022-08-24T21:32:29.874Z,8.13
2022-08-24T21:34:40.916Z,7.65
2022-08-24T21:36:43.368Z,6.18
2022-08-24T21:38:45.592Z,7.07
2022-08-24T21:40:48.720Z,6.55
2022-08-24T21:42:50.969Z,6.85
2022-08-24T21:44:53.836Z,7.53
2022-08-24T21:46:57.139Z,6.30
2022-08-24T21:49:00.519Z,7.00
2022-08-24T21:51:02.921Z,6.60
2022-08-24T21:53:08.374Z,5.88
2022-08-24T21:55:15.031Z,6.15
2022-08-24T21:57:17.983Z,6.03
2022-08-24T21:59:19.959Z,7.57
2022-08-24T22:01:22.178Z,5.53
2022-08-24T22:03:24.476Z,6.80
2022-08-24T22:05:26.797Z,5.30
2022-08-24T22:07:28.984Z,4.40
2022-08-24T22:09:31.054Z,5.65
2022-08-24T22:11:33.488Z,7.45
2022-08-24T22:13:36.294Z,4.95
2022-08-24T22:15:38.682Z,6.30
2022-08-24T22:17:40.776Z,5.03
2022-08-24T22:19:43.026Z,5.00
2022-08-24T22:21:48.042Z,4.93
2022-08-24T22:23:50.570Z,4.80
2022-08-24T22:25:54.285Z,8.82
2022-08-24T22:27:56.290Z,4.43
2022-08-24T22:29:59.022Z,7.07
2022-08-24T22:32:01.198Z,7.63
2022-08-24T22:34:07.647Z,8.10
2022-08-24T22:36:11.386Z,5.63
2022-08-24T22:38:13.664Z,7.20
2022-08-24T22:40:16.059Z,6.50
2022-08-24T22:42:27.657Z,6.05
2022-08-24T22:44:30.099Z,6.18
2022-08-24T22:46:33.037Z,8.40
2022-08-24T22:48:35.622Z,8.60
2022-08-24T22:50:38.186Z,9.48
2022-08-24T22:52:40.705Z,7.30
2022-08-24T22:54:43.551Z,4.60
2022-08-24T22:56:48.181Z,8.52
2022-08-24T22:58:50.345Z,4.95
2022-08-24T23:00:52.414Z,6.90
2022-08-24T23:02:54.514Z,7.15
2022-08-24T23:04:56.761Z,7.82
2022-08-24T23:06:59.919Z,6.22
2022-08-24T23:09:02.241Z,7.32
2022-08-24T23:11:04.283Z,7.93
2022-08-24T23:13:07.052Z,6.10
2022-08-24T23:15:09.677Z,4.60
2022-08-24T23:17:12.519Z,7.18
2022-08-24T23:19:35.918Z,6.72
2022-08-24T23:21:38.495Z,8.95
2022-08-24T23:23:43.511Z,7.25
2022-08-24T23:25:49.693Z,5.80
2022-08-24T23:27:52.239Z,6.82
2022-08-24T23:29:55.053Z,6.43
2022-08-24T23:31:58.244Z,4.78
2022-08-24T23:34:00.466Z,7.70
2022-08-24T23:36:09.240Z,3.70
2022-08-24T23:38:11.285Z,6.38
2022-08-24T23:40:13.391Z,5.35
2022-08-24T23:42:15.958Z,5.20
2022-08-24T23:44:23.642Z,6.30
2022-08-24T23:46:25.955Z,5.45
2022-08-24T23:48:28.528Z,5.93
2022-08-24T23:50:30.662Z,8.35
2022-08-24T23:52:32.752Z,6.22
2022-08-24T23:54:35.169Z,7.53
2022-08-24T23:56:39.208Z,6.72
2022-08-24T23:58:46.479Z,5.60
